sensor_id;sensor_type;location;lat;lon;timestamp;pressure;altitude;pressure_sealevel;temperature;humidity
67818;BME280;54614;47.576;7.524;2024-03-07T00:00:13;98918.44;;;23.70;36.44
67818;BME280;54614;47.576;7.524;2024-03-07T00:02:50;98912.19;;;23.63;36.46
67818;BME280;54614;47.576;7.524;2024-03-07T00:05:20;98907.91;;;23.69;36.77
67818;BME280;54614;47.576;7.524;2024-03-07T00:07:46;98907.66;;;23.64;36.69
67818;BME280;54614;47.576;7.524;2024-03-07T00:10:13;98907.47;;;23.65;36.73
67818;BME280;54614;47.576;7.524;2024-03-07T00:12:41;98912.44;;;23.68;36.52
67818;BME280;54614;47.576;7.524;2024-03-07T00:15:12;98914.28;;;23.68;36.34
67818;BME280;54614;47.576;7.524;2024-03-07T00:17:38;98907.69;;;23.70;36.54
67818;BME280;54614;47.576;7.524;2024-03-07T00:20:06;98905.22;;;23.69;36.28
67818;BME280;54614;47.576;7.524;2024-03-07T00:22:43;98905.59;;;23.66;36.47
67818;BME280;54614;47.576;7.524;2024-03-07T00:25:09;98908.91;;;23.68;36.66
67818;BME280;54614;47.576;7.524;2024-03-07T00:27:36;98902.72;;;23.67;36.53
67818;BME280;54614;47.576;7.524;2024-03-07T00:30:06;98901.84;;;23.60;36.67
67818;BME280;54614;47.576;7.524;2024-03-07T00:32:34;98905.59;;;23.66;36.45
67818;BME280;54614;47.576;7.524;2024-03-07T00:35:02;98897.34;;;23.67;36.57
67818;BME280;54614;47.576;7.524;2024-03-07T00:37:29;98901.25;;;23.65;36.29
67818;BME280;54614;47.576;7.524;2024-03-07T00:39:56;98898.38;;;23.66;36.46
67818;BME280;54614;47.576;7.524;2024-03-07T00:42:22;98896.28;;;23.62;36.59
67818;BME280;54614;47.576;7.524;2024-03-07T00:44:48;98894.03;;;23.65;36.65
67818;BME280;54614;47.576;7.524;2024-03-07T00:47:17;98887.84;;;23.65;36.39
67818;BME280;54614;47.576;7.524;2024-03-07T00:49:44;98882.63;;;23.57;36.82
67818;BME280;54614;47.576;7.524;2024-03-07T00:52:12;98882.66;;;23.63;36.65
67818;BME280;54614;47.576;7.524;2024-03-07T00:54:38;98879.16;;;23.63;36.51
67818;BME280;54614;47.576;7.524;2024-03-07T00:57:04;98880.22;;;23.68;36.42
67818;BME280;54614;47.576;7.524;2024-03-07T00:59:30;98878.31;;;23.62;36.57
67818;BME280;54614;47.576;7.524;2024-03-07T01:01:56;98876.03;;;23.59;36.76
67818;BME280;54614;47.576;7.524;2024-03-07T01:04:22;98867.53;;;23.56;36.65
67818;BME280;54614;47.576;7.524;2024-03-07T01:06:48;98859.69;;;23.54;36.75
67818;BME280;54614;47.576;7.524;2024-03-07T01:09:14;98862.38;;;23.54;36.53
67818;BME280;54614;47.576;7.524;2024-03-07T01:11:43;98860.53;;;23.61;36.70
67818;BME280;54614;47.576;7.524;2024-03-07T01:14:11;98857.84;;;23.61;36.37
67818;BME280;54614;47.576;7.524;2024-03-07T01:16:37;98857.81;;;23.55;36.86
67818;BME280;54614;47.576;7.524;2024-03-07T01:19:03;98861.78;;;23.59;36.45
67818;BME280;54614;47.576;7.524;2024-03-07T01:21:35;98852.44;;;23.55;36.93
67818;BME280;54614;47.576;7.524;2024-03-07T01:24:02;98850.97;;;23.52;36.65
67818;BME280;54614;47.576;7.524;2024-03-07T01:26:28;98851.78;;;23.53;36.77
67818;BME280;54614;47.576;7.524;2024-03-07T01:28:56;98854.94;;;23.56;36.89
67818;BME280;54614;47.576;7.524;2024-03-07T01:31:22;98857.00;;;23.54;36.88
67818;BME280;54614;47.576;7.524;2024-03-07T01:33:48;98845.84;;;23.57;36.63
67818;BME280;54614;47.576;7.524;2024-03-07T01:36:15;98845.16;;;23.48;36.90
67818;BME280;54614;47.576;7.524;2024-03-07T01:38:41;98833.00;;;23.53;36.42
67818;BME280;54614;47.576;7.524;2024-03-07T01:41:06;98828.47;;;23.53;36.96
67818;BME280;54614;47.576;7.524;2024-03-07T01:43:32;98826.16;;;23.50;36.69
67818;BME280;54614;47.576;7.524;2024-03-07T01:45:58;98826.78;;;23.52;36.89
67818;BME280;54614;47.576;7.524;2024-03-07T01:48:28;98816.06;;;23.52;36.89
67818;BME280;54614;47.576;7.524;2024-03-07T01:51:04;98818.13;;;23.50;36.89
67818;BME280;54614;47.576;7.524;2024-03-07T01:53:30;98815.44;;;23.50;36.84
67818;BME280;54614;47.576;7.524;2024-03-07T01:55:59;98811.72;;;23.51;36.64
67818;BME280;54614;47.576;7.524;2024-03-07T01:58:25;98815.00;;;23.46;36.70
67818;BME280;54614;47.576;7.524;2024-03-07T02:00:51;98815.41;;;23.43;36.77
67818;BME280;54614;47.576;7.524;2024-03-07T02:03:17;98816.84;;;23.46;36.83
67818;BME280;54614;47.576;7.524;2024-03-07T02:05:44;98809.81;;;23.45;36.79
67818;BME280;54614;47.576;7.524;2024-03-07T02:08:11;98810.66;;;23.45;36.76
67818;BME280;54614;47.576;7.524;2024-03-07T02:10:37;98806.34;;;23.51;36.75
67818;BME280;54614;47.576;7.524;2024-03-07T02:13:04;98800.97;;;23.51;36.56
67818;BME280;54614;47.576;7.524;2024-03-07T02:15:30;98797.47;;;23.51;36.60
67818;BME280;54614;47.576;7.524;2024-03-07T02:17:56;98800.16;;;23.51;36.56
67818;BME280;54614;47.576;7.524;2024-03-07T02:20:23;98797.72;;;23.56;36.52
67818;BME280;54614;47.576;7.524;2024-03-07T02:22:49;98792.72;;;23.53;36.77
67818;BME280;54614;47.576;7.524;2024-03-07T02:25:16;98792.09;;;23.51;36.83
67818;BME280;54614;47.576;7.524;2024-03-07T02:27:42;98783.41;;;23.48;36.86
67818;BME280;54614;47.576;7.524;2024-03-07T02:30:11;98785.47;;;23.46;36.97
67818;BME280;54614;47.576;7.524;2024-03-07T02:32:38;98787.72;;;23.43;36.72
67818;BME280;54614;47.576;7.524;2024-03-07T02:35:05;98779.91;;;23.48;36.62
67818;BME280;54614;47.576;7.524;2024-03-07T02:37:31;98770.78;;;23.42;37.02
67818;BME280;54614;47.576;7.524;2024-03-07T02:39:57;98773.50;;;23.49;36.83
67818;BME280;54614;47.576;7.524;2024-03-07T02:42:23;98769.16;;;23.48;36.67
67818;BME280;54614;47.576;7.524;2024-03-07T02:44:49;98769.97;;;23.42;36.87
67818;BME280;54614;47.576;7.524;2024-03-07T02:47:15;98770.78;;;23.42;36.81
67818;BME280;54614;47.576;7.524;2024-03-07T02:49:40;98769.13;;;23.41;36.82
67818;BME280;54614;47.576;7.524;2024-03-07T02:52:06;98772.25;;;23.45;36.85
67818;BME280;54614;47.576;7.524;2024-03-07T02:54:34;98768.72;;;23.44;36.94
67818;BME280;54614;47.576;7.524;2024-03-07T02:57:00;98769.34;;;23.46;36.75
67818;BME280;54614;47.576;7.524;2024-03-07T02:59:26;98764.00;;;23.46;36.82
67818;BME280;54614;47.576;7.524;2024-03-07T03:01:52;98767.50;;;23.47;36.43
67818;BME280;54614;47.576;7.524;2024-03-07T03:04:18;98770.38;;;23.45;36.64
67818;BME280;54614;47.576;7.524;2024-03-07T03:06:43;98764.59;;;23.42;36.63
67818;BME280;54614;47.576;7.524;2024-03-07T03:09:10;98767.91;;;23.44;36.57
67818;BME280;54614;47.576;7.524;2024-03-07T03:11:39;98766.84;;;23.38;36.78
67818;BME280;54614;47.576;7.524;2024-03-07T03:14:05;98764.16;;;23.38;36.88
67818;BME280;54614;47.576;7.524;2024-03-07T03:16:30;98761.66;;;23.37;36.69
67818;BME280;54614;47.576;7.524;2024-03-07T03:18:57;98757.13;;;23.37;36.90
67818;BME280;54614;47.576;7.524;2024-03-07T03:21:23;98755.06;;;23.39;36.86
67818;BME280;54614;47.576;7.524;2024-03-07T03:23:49;98759.19;;;23.35;36.96
67818;BME280;54614;47.576;7.524;2024-03-07T03:26:15;98756.72;;;23.40;36.61
67818;BME280;54614;47.576;7.524;2024-03-07T03:28:41;98761.31;;;23.46;36.78
67818;BME280;54614;47.576;7.524;2024-03-07T03:31:08;98759.41;;;23.40;36.64
67818;BME280;54614;47.576;7.524;2024-03-07T03:33:34;98767.28;;;23.42;36.93
67818;BME280;54614;47.576;7.524;2024-03-07T03:36:01;98753.22;;;23.40;36.74
67818;BME280;54614;47.576;7.524;2024-03-07T03:38:26;98759.81;;;23.37;36.65
67818;BME280;54614;47.576;7.524;2024-03-07T03:40:52;98757.97;;;23.38;36.98
67818;BME280;54614;47.576;7.524;2024-03-07T03:43:18;98755.47;;;23.36;36.63
67818;BME280;54614;47.576;7.524;2024-03-07T03:45:44;98756.50;;;23.35;36.82
67818;BME280;54614;47.576;7.524;2024-03-07T03:48:11;98757.53;;;23.34;36.90
67818;BME280;54614;47.576;7.524;2024-03-07T03:50:37;98754.44;;;23.37;36.58
67818;BME280;54614;47.576;7.524;2024-03-07T03:53:03;98752.41;;;23.39;37.02
67818;BME280;54614;47.576;7.524;2024-03-07T03:55:29;98745.56;;;23.37;36.53
67818;BME280;54614;47.576;7.524;2024-03-07T03:57:55;98753.00;;;23.35;36.73
67818;BME280;54614;47.576;7.524;2024-03-07T04:00:21;98753.19;;;23.33;36.54
67818;BME280;54614;47.576;7.524;2024-03-07T04:02:48;98741.63;;;23.33;36.82
67818;BME280;54614;47.576;7.524;2024-03-07T04:05:17;98745.53;;;23.30;36.90
67818;BME280;54614;47.576;7.524;2024-03-07T04:07:45;98748.66;;;23.34;36.80
67818;BME280;54614;47.576;7.524;2024-03-07T04:10:12;98746.38;;;23.31;36.76
67818;BME280;54614;47.576;7.524;2024-03-07T04:12:40;98740.56;;;23.27;36.90
67818;BME280;54614;47.576;7.524;2024-03-07T04:15:08;98741.22;;;23.36;36.73
67818;BME280;54614;47.576;7.524;2024-03-07T04:17:35;98743.72;;;23.37;36.70
67818;BME280;54614;47.576;7.524;2024-03-07T04:20:03;98745.56;;;23.37;36.60
67818;BME280;54614;47.576;7.524;2024-03-07T04:22:34;98738.72;;;23.28;36.75
67818;BME280;54614;47.576;7.524;2024-03-07T04:25:04;98736.25;;;23.33;36.71
67818;BME280;54614;47.576;7.524;2024-03-07T04:27:30;98736.06;;;23.34;36.79
67818;BME280;54614;47.576;7.524;2024-03-07T04:29:56;98732.34;;;23.35;36.82
67818;BME280;54614;47.576;7.524;2024-03-07T04:32:22;98731.13;;;23.38;37.08
67818;BME280;54614;47.576;7.524;2024-03-07T04:34:48;98733.81;;;23.38;36.73
67818;BME280;54614;47.576;7.524;2024-03-07T04:37:17;98734.63;;;23.38;nan
67818;BME280;54614;47.576;7.524;2024-03-07T04:39:43;98730.28;;;23.37;36.69
67818;BME280;54614;47.576;7.524;2024-03-07T04:42:09;98731.13;;;23.38;36.91
67818;BME280;54614;47.576;7.524;2024-03-07T04:44:36;98730.91;;;23.39;36.68
67818;BME280;54614;47.576;7.524;2024-03-07T04:47:05;98729.25;;;23.38;36.62
67818;BME280;54614;47.576;7.524;2024-03-07T04:49:33;98720.97;;;23.33;36.53
67818;BME280;54614;47.576;7.524;2024-03-07T04:52:01;98732.94;;;23.31;36.58
67818;BME280;54614;47.576;7.524;2024-03-07T04:54:28;98730.69;;;23.34;36.77
67818;BME280;54614;47.576;7.524;2024-03-07T04:56:55;98732.34;;;23.35;36.79
67818;BME280;54614;47.576;7.524;2024-03-07T04:59:22;98735.22;;;23.34;36.71
67818;BME280;54614;47.576;7.524;2024-03-07T05:01:49;98730.09;;;23.39;36.97
67818;BME280;54614;47.576;7.524;2024-03-07T05:04:17;98730.09;;;23.39;36.67
67818;BME280;54614;47.576;7.524;2024-03-07T05:06:43;98726.59;;;23.45;36.54
67818;BME280;54614;47.576;7.524;2024-03-07T05:09:10;98725.31;;;23.34;36.58
67818;BME280;54614;47.576;7.524;2024-03-07T05:11:49;98722.44;;;23.36;36.73
67818;BME280;54614;47.576;7.524;2024-03-07T05:14:18;98723.88;;;23.32;36.90
67818;BME280;54614;47.576;7.524;2024-03-07T05:16:44;98724.28;;;23.29;36.86
67818;BME280;54614;47.576;7.524;2024-03-07T05:19:10;98722.72;;;23.06;36.49
67818;BME280;54614;47.576;7.524;2024-03-07T05:21:36;98728.03;;;23.00;36.58
67818;BME280;54614;47.576;7.524;2024-03-07T05:24:09;98722.50;;;23.08;36.98
67818;BME280;54614;47.576;7.524;2024-03-07T05:26:35;98726.09;;;23.22;36.69
67818;BME280;54614;47.576;7.524;2024-03-07T05:29:08;98722.41;;;23.29;36.60
67818;BME280;54614;47.576;7.524;2024-03-07T05:31:39;98731.16;;;23.03;36.39
67818;BME280;54614;47.576;7.524;2024-03-07T05:34:13;98717.75;;;23.03;36.72
67818;BME280;54614;47.576;7.524;2024-03-07T05:36:39;98718.38;;;23.05;36.25
67818;BME280;54614;47.576;7.524;2024-03-07T05:39:13;98726.84;;;23.09;36.53
67818;BME280;54614;47.576;7.524;2024-03-07T05:41:43;98719.03;;;23.14;36.55
67818;BME280;54614;47.576;7.524;2024-03-07T05:44:11;98723.19;;;23.17;36.58
67818;BME280;54614;47.576;7.524;2024-03-07T05:46:38;98719.91;;;23.21;36.12
67818;BME280;54614;47.576;7.524;2024-03-07T05:49:10;98717.59;;;23.11;36.49
67818;BME280;54614;47.576;7.524;2024-03-07T05:51:36;98721.09;;;23.12;36.37
67818;BME280;54614;47.576;7.524;2024-03-07T05:54:03;98717.03;;;23.29;36.52
67818;BME280;54614;47.576;7.524;2024-03-07T05:56:35;98722.34;;;23.16;36.57
67818;BME280;54614;47.576;7.524;2024-03-07T05:59:02;98727.53;;;23.18;36.56
67818;BME280;54614;47.576;7.524;2024-03-07T06:01:33;98728.34;;;23.18;36.53
67818;BME280;54614;47.576;7.524;2024-03-07T06:04:01;98727.97;;;23.28;36.42
67818;BME280;54614;47.576;7.524;2024-03-07T06:06:28;98727.34;;;23.26;36.60
67818;BME280;54614;47.576;7.524;2024-03-07T06:08:58;98726.53;;;23.25;36.65
67818;BME280;54614;47.576;7.524;2024-03-07T06:11:23;98728.13;;;23.13;36.57
67818;BME280;54614;47.576;7.524;2024-03-07T06:13:49;98726.06;;;23.15;36.65
67818;BME280;54614;47.576;7.524;2024-03-07T06:16:15;98732.44;;;23.14;36.95
67818;BME280;54614;47.576;7.524;2024-03-07T06:18:41;98736.13;;;23.06;36.77
67818;BME280;54614;47.576;7.524;2024-03-07T06:21:08;98733.44;;;23.06;36.83
67818;BME280;54614;47.576;7.524;2024-03-07T06:23:34;98732.22;;;23.09;36.71
67818;BME280;54614;47.576;7.524;2024-03-07T06:26:00;98729.69;;;23.01;36.92
67818;BME280;54614;47.576;7.524;2024-03-07T06:28:27;98723.34;;;23.08;36.76
67818;BME280;54614;47.576;7.524;2024-03-07T06:30:55;98723.75;;;23.05;37.03
67818;BME280;54614;47.576;7.524;2024-03-07T06:33:22;98727.88;;;23.08;36.73
67818;BME280;54614;47.576;7.524;2024-03-07T06:35:47;98720.66;;;23.08;36.68
67818;BME280;54614;47.576;7.524;2024-03-07T06:38:14;98718.19;;;23.07;36.22
67818;BME280;54614;47.576;7.524;2024-03-07T06:40:41;98728.16;;;23.20;36.29
67818;BME280;54614;47.576;7.524;2024-03-07T06:43:10;98725.81;;;23.10;36.59
67818;BME280;54614;47.576;7.524;2024-03-07T06:45:39;98719.59;;;23.03;36.32
67818;BME280;54614;47.576;7.524;2024-03-07T06:48:08;98721.72;;;23.14;36.11
67818;BME280;54614;47.576;7.524;2024-03-07T06:50:35;98716.34;;;23.14;36.33
67818;BME280;54614;47.576;7.524;2024-03-07T06:53:02;98715.59;;;23.27;36.09
67818;BME280;54614;47.576;7.524;2024-03-07T06:55:28;98722.63;;;23.28;36.10
67818;BME280;54614;47.576;7.524;2024-03-07T06:57:54;98723.25;;;23.30;36.12
67818;BME280;54614;47.576;7.524;2024-03-07T07:00:20;98718.94;;;23.35;36.24
67818;BME280;54614;47.576;7.524;2024-03-07T07:02:47;98718.28;;;23.33;36.28
67818;BME280;54614;47.576;7.524;2024-03-07T07:05:14;98725.09;;;23.29;36.13
67818;BME280;54614;47.576;7.524;2024-03-07T07:07:50;98719.13;;;23.34;36.06
67818;BME280;54614;47.576;7.524;2024-03-07T07:10:19;98712.34;;;23.38;36.00
67818;BME280;54614;47.576;7.524;2024-03-07T07:12:48;98710.69;;;23.37;35.90
67818;BME280;54614;47.576;7.524;2024-03-07T07:15:18;98714.19;;;23.37;36.44
67818;BME280;54614;47.576;7.524;2024-03-07T07:17:48;98711.25;;;23.26;36.51
67818;BME280;54614;47.576;7.524;2024-03-07T07:20:16;98705.91;;;23.32;36.45
67818;BME280;54614;47.576;7.524;2024-03-07T07:22:46;98712.53;;;23.36;36.63
67818;BME280;54614;47.576;7.524;2024-03-07T07:25:15;98714.16;;;23.31;36.42
67818;BME280;54614;47.576;7.524;2024-03-07T07:27:51;98709.16;;;23.21;36.74
67818;BME280;54614;47.576;7.524;2024-03-07T07:30:21;98707.50;;;23.20;36.95
67818;BME280;54614;47.576;7.524;2024-03-07T07:32:51;98707.44;;;23.07;37.06
67818;BME280;54614;47.576;7.524;2024-03-07T07:35:17;98704.72;;;23.00;37.05
67818;BME280;54614;47.576;7.524;2024-03-07T07:37:49;98703.91;;;23.00;37.34
67818;BME280;54614;47.576;7.524;2024-03-07T07:40:17;98700.81;;;23.03;37.16
67818;BME280;54614;47.576;7.524;2024-03-07T07:42:51;98703.91;;;23.00;36.92
67818;BME280;54614;47.576;7.524;2024-03-07T07:45:19;98702.03;;;23.00;37.06
67818;BME280;54614;47.576;7.524;2024-03-07T07:47:48;98703.69;;;23.01;37.22
67818;BME280;54614;47.576;7.524;2024-03-07T07:50:23;98699.16;;;23.02;37.04
67818;BME280;54614;47.576;7.524;2024-03-07T07:52:55;98702.94;;;23.14;37.05
67818;BME280;54614;47.576;7.524;2024-03-07T07:55:26;98703.56;;;23.16;36.56
67818;BME280;54614;47.576;7.524;2024-03-07T07:57:58;98703.00;;;23.27;36.68
67818;BME280;54614;47.576;7.524;2024-03-07T08:00:26;98693.72;;;23.30;36.27
67818;BME280;54614;47.576;7.524;2024-03-07T08:03:03;98691.19;;;23.15;36.63
67818;BME280;54614;47.576;7.524;2024-03-07T08:05:34;98686.47;;;23.24;36.34
67818;BME280;54614;47.576;7.524;2024-03-07T08:08:05;98694.94;;;23.27;36.74
67818;BME280;54614;47.576;7.524;2024-03-07T08:10:34;98693.69;;;23.23;37.08
67818;BME280;54614;47.576;7.524;2024-03-07T08:13:02;98697.81;;;23.19;37.13
67818;BME280;54614;47.576;7.524;2024-03-07T08:15:30;98691.63;;;23.25;37.12
67818;BME280;54614;47.576;7.524;2024-03-07T08:17:58;98684.84;;;23.29;37.09
67818;BME280;54614;47.576;7.524;2024-03-07T08:20:26;98692.25;;;23.27;37.28
67818;BME280;54614;47.576;7.524;2024-03-07T08:22:54;98692.84;;;23.16;37.62
67818;BME280;54614;47.576;7.524;2024-03-07T08:25:26;98686.88;;;23.21;37.45
67818;BME280;54614;47.576;7.524;2024-03-07T08:27:59;98685.06;;;23.34;37.39
67818;BME280;54614;47.576;7.524;2024-03-07T08:30:25;98691.09;;;23.43;37.03
67818;BME280;54614;47.576;7.524;2024-03-07T08:32:55;98682.22;;;23.49;37.16
67818;BME280;54614;47.576;7.524;2024-03-07T08:35:22;98675.00;;;23.50;37.06
67818;BME280;54614;47.576;7.524;2024-03-07T08:37:51;98679.81;;;23.61;36.77
67818;BME280;54614;47.576;7.524;2024-03-07T08:40:22;98678.34;;;23.58;36.49
67818;BME280;54614;47.576;7.524;2024-03-07T08:42:50;98677.09;;;23.54;36.74
67818;BME280;54614;47.576;7.524;2024-03-07T08:45:18;98680.00;;;23.59;37.17
67818;BME280;54614;47.576;7.524;2024-03-07T08:47:49;98675.47;;;23.66;36.69
67818;BME280;54614;47.576;7.524;2024-03-07T08:50:16;98679.19;;;23.65;36.94
67818;BME280;54614;47.576;7.524;2024-03-07T08:52:48;98677.13;;;23.67;37.00
67818;BME280;54614;47.576;7.524;2024-03-07T08:55:22;98683.97;;;23.70;36.65
67818;BME280;54614;47.576;7.524;2024-03-07T08:57:48;98676.53;;;23.72;36.90
67818;BME280;54614;47.576;7.524;2024-03-07T09:00:16;98669.09;;;23.74;36.65
67818;BME280;54614;47.576;7.524;2024-03-07T09:02:49;98669.06;;;23.67;36.76
67818;BME280;54614;47.576;7.524;2024-03-07T09:05:22;98674.66;;;23.66;36.87
67818;BME280;54614;47.576;7.524;2024-03-07T09:07:49;98671.34;;;23.70;36.76
67818;BME280;54614;47.576;7.524;2024-03-07T09:10:15;98666.41;;;23.81;37.01
67818;BME280;54614;47.576;7.524;2024-03-07T09:12:42;98671.59;;;23.89;36.74
67818;BME280;54614;47.576;7.524;2024-03-07T09:15:08;98671.38;;;23.84;36.77
67818;BME280;54614;47.576;7.524;2024-03-07T09:17:36;98673.44;;;23.82;36.71
67818;BME280;54614;47.576;7.524;2024-03-07T09:20:06;98670.56;;;23.83;36.39
67818;BME280;54614;47.576;7.524;2024-03-07T09:22:32;98670.75;;;23.82;36.71
67818;BME280;54614;47.576;7.524;2024-03-07T09:24:59;98666.84;;;23.91;36.35
67818;BME280;54614;47.576;7.524;2024-03-07T09:27:25;98661.47;;;23.84;36.36
67818;BME280;54614;47.576;7.524;2024-03-07T09:29:51;98670.94;;;23.67;37.21
67818;BME280;54614;47.576;7.524;2024-03-07T09:32:17;98657.53;;;23.73;36.88
67818;BME280;54614;47.576;7.524;2024-03-07T09:34:43;98649.25;;;23.82;36.69
67818;BME280;54614;47.576;7.524;2024-03-07T09:37:09;98653.19;;;23.92;36.26
67818;BME280;54614;47.576;7.524;2024-03-07T09:39:35;98652.38;;;23.98;36.35
67818;BME280;54614;47.576;7.524;2024-03-07T09:42:02;98646.19;;;24.04;36.29
67818;BME280;54614;47.576;7.524;2024-03-07T09:44:29;98649.28;;;24.01;36.09
67818;BME280;54614;47.576;7.524;2024-03-07T09:46:56;98653.63;;;24.02;36.26
67818;BME280;54614;47.576;7.524;2024-03-07T09:49:25;98649.06;;;23.96;35.89
67818;BME280;54614;47.576;7.524;2024-03-07T09:51:51;98654.03;;;23.86;36.60
67818;BME280;54614;47.576;7.524;2024-03-07T09:54:21;98647.41;;;23.95;36.56
67818;BME280;54614;47.576;7.524;2024-03-07T09:56:53;98643.91;;;24.08;36.34
67818;BME280;54614;47.576;7.524;2024-03-07T09:59:20;98640.59;;;24.06;36.51
67818;BME280;54614;47.576;7.524;2024-03-07T10:01:57;98643.69;;;24.16;35.85
67818;BME280;54614;47.576;7.524;2024-03-07T10:04:37;98637.91;;;24.06;35.86
67818;BME280;54614;47.576;7.524;2024-03-07T10:07:07;98644.53;;;23.97;36.35
67818;BME280;54614;47.576;7.524;2024-03-07T10:09:38;98648.03;;;24.10;36.11
67818;BME280;54614;47.576;7.524;2024-03-07T10:12:06;98652.38;;;24.18;36.03
67818;BME280;54614;47.576;7.524;2024-03-07T10:14:35;98653.63;;;24.22;35.92
67818;BME280;54614;47.576;7.524;2024-03-07T10:17:03;98652.41;;;24.31;35.76
67818;BME280;54614;47.576;7.524;2024-03-07T10:19:29;98647.00;;;24.25;35.76
67818;BME280;54614;47.576;7.524;2024-03-07T10:21:56;98652.19;;;24.26;35.53
67818;BME280;54614;47.576;7.524;2024-03-07T10:24:25;98639.16;;;24.23;35.89
67818;BME280;54614;47.576;7.524;2024-03-07T10:26:51;98645.97;;;24.26;35.83
67818;BME280;54614;47.576;7.524;2024-03-07T10:29:17;98642.47;;;24.38;35.78
67818;BME280;54614;47.576;7.524;2024-03-07T10:31:44;98639.38;;;24.35;35.48
67818;BME280;54614;47.576;7.524;2024-03-07T10:34:11;98634.00;;;24.35;35.57
67818;BME280;54614;47.576;7.524;2024-03-07T10:36:37;98640.19;;;24.35;35.60
67818;BME280;54614;47.576;7.524;2024-03-07T10:39:05;98636.25;;;24.18;35.69
67818;BME280;54614;47.576;7.524;2024-03-07T10:41:45;98630.91;;;24.31;35.46
67818;BME280;54614;47.576;7.524;2024-03-07T10:44:20;98642.47;;;23.92;35.95
67818;BME280;54614;47.576;7.524;2024-03-07T10:46:55;98637.50;;;24.09;35.73
67818;BME280;54614;47.576;7.524;2024-03-07T10:49:25;98641.63;;;23.98;35.88
67818;BME280;54614;47.576;7.524;2024-03-07T10:52:02;98644.53;;;23.90;35.96
67818;BME280;54614;47.576;7.524;2024-03-07T10:54:48;98636.06;;;24.00;35.62
67818;BME280;54614;47.576;7.524;2024-03-07T10:58:05;98636.25;;;23.92;35.79
67818;BME280;54614;47.576;7.524;2024-03-07T11:00:11;98635.84;;;24.01;36.11
67818;BME280;54614;47.576;7.524;2024-03-07T11:02:56;98630.88;;;24.11;35.55
67818;BME280;54614;47.576;7.524;2024-03-07T11:05:26;98633.97;;;24.02;35.93
67818;BME280;54614;47.576;7.524;2024-03-07T11:07:59;98638.09;;;23.78;36.51
67818;BME280;54614;47.576;7.524;2024-03-07T11:10:30;98629.84;;;23.93;35.87
67818;BME280;54614;47.576;7.524;2024-03-07T11:12:57;98627.56;;;24.03;36.32
67818;BME280;54614;47.576;7.524;2024-03-07T11:15:25;98632.75;;;24.04;35.81
67818;BME280;54614;47.576;7.524;2024-03-07T11:17:54;98623.03;;;23.97;36.52
67818;BME280;54614;47.576;7.524;2024-03-07T11:20:33;98628.19;;;23.72;36.90
67818;BME280;54614;47.576;7.524;2024-03-07T11:22:59;98620.94;;;23.66;36.98
67818;BME280;54614;47.576;7.524;2024-03-07T11:25:27;98620.72;;;23.61;36.73
67818;BME280;54614;47.576;7.524;2024-03-07T11:27:59;98615.72;;;23.44;37.13
67818;BME280;54614;47.576;7.524;2024-03-07T11:30:26;98620.88;;;23.46;36.93
67818;BME280;54614;47.576;7.524;2024-03-07T11:32:54;98616.81;;;23.63;36.64
67818;BME280;54614;47.576;7.524;2024-03-07T11:35:21;98614.06;;;23.50;37.12
67818;BME280;54614;47.576;7.524;2024-03-07T11:37:59;98619.44;;;23.43;37.63
67818;BME280;54614;47.576;7.524;2024-03-07T11:42:52;98610.13;;;23.46;37.01
67818;BME280;54614;47.576;7.524;2024-03-07T11:45:20;98603.59;;;23.68;37.07
67818;BME280;54614;47.576;7.524;2024-03-07T11:47:59;98593.47;;;23.84;36.48
67818;BME280;54614;47.576;7.524;2024-03-07T11:50:29;98592.44;;;23.91;36.28
67818;BME280;54614;47.576;7.524;2024-03-07T11:53:02;98593.25;;;24.11;35.79
67818;BME280;54614;47.576;7.524;2024-03-07T11:55:32;98584.59;;;24.03;36.17
67818;BME280;54614;47.576;7.524;2024-03-07T11:58:18;98585.84;;;23.94;36.09
67818;BME280;54614;47.576;7.524;2024-03-07T12:00:48;98592.25;;;23.93;35.89
67818;BME280;54614;47.576;7.524;2024-03-07T12:03:16;98586.44;;;24.02;35.82
67818;BME280;54614;47.576;7.524;2024-03-07T12:05:48;98586.63;;;24.14;35.85
67818;BME280;54614;47.576;7.524;2024-03-07T12:08:14;98588.50;;;24.00;35.85
67818;BME280;54614;47.576;7.524;2024-03-07T12:10:43;98593.69;;;24.02;36.07
67818;BME280;54614;47.576;7.524;2024-03-07T12:13:13;98586.44;;;24.16;35.67
67818;BME280;54614;47.576;7.524;2024-03-07T12:15:43;98587.88;;;24.05;36.12
67818;BME280;54614;47.576;7.524;2024-03-07T12:18:11;98579.00;;;23.98;36.20
67818;BME280;54614;47.576;7.524;2024-03-07T12:20:40;98599.25;;;23.61;36.76
67818;BME280;54614;47.576;7.524;2024-03-07T12:23:08;98589.13;;;23.56;36.99
67818;BME280;54614;47.576;7.524;2024-03-07T12:25:40;98577.56;;;23.62;36.93
67818;BME280;54614;47.576;7.524;2024-03-07T12:28:13;98582.53;;;23.65;36.87
67818;BME280;54614;47.576;7.524;2024-03-07T12:30:54;98577.56;;;23.75;36.83
67818;BME280;54614;47.576;7.524;2024-03-07T12:33:23;98569.28;;;24.03;37.15
67818;BME280;54614;47.576;7.524;2024-03-07T12:35:54;98568.47;;;24.03;36.42
67818;BME280;54614;47.576;7.524;2024-03-07T12:38:32;98570.34;;;23.69;37.14
67818;BME280;54614;47.576;7.524;2024-03-07T12:41:09;98570.75;;;23.60;37.28
67818;BME280;54614;47.576;7.524;2024-03-07T12:43:42;98563.09;;;23.57;37.05
67818;BME280;54614;47.576;7.524;2024-03-07T12:46:11;98555.66;;;23.98;36.35
67818;BME280;54614;47.576;7.524;2024-03-07T12:48:41;98554.81;;;24.04;36.01
67818;BME280;54614;47.576;7.524;2024-03-07T12:51:07;98561.44;;;24.02;36.38
67818;BME280;54614;47.576;7.524;2024-03-07T12:53:32;98557.31;;;23.86;36.37
67818;BME280;54614;47.576;7.524;2024-03-07T12:56:00;98554.22;;;23.83;36.52
67818;BME280;54614;47.576;7.524;2024-03-07T12:58:28;98553.41;;;23.75;36.63
67818;BME280;54614;47.576;7.524;2024-03-07T13:00:55;98539.97;;;23.82;36.60
67818;BME280;54614;47.576;7.524;2024-03-07T13:03:23;98543.69;;;23.81;36.66
67818;BME280;54614;47.576;7.524;2024-03-07T13:05:50;98537.06;;;23.84;36.33
67818;BME280;54614;47.576;7.524;2024-03-07T13:08:16;98544.72;;;23.73;36.75